createdAt,value
2018-12-03T00:01:32.171Z,97.10
2018-12-03T00:04:08.117Z,96.80
2018-12-03T00:06:36.653Z,96.60
2018-12-03T00:09:08.096Z,96.30
2018-12-03T00:11:37.115Z,96.10
2018-12-03T00:14:05.703Z,95.90
2018-12-03T00:16:34.228Z,95.70
2018-12-03T00:19:02.756Z,95.60
2018-12-03T00:21:31.400Z,95.60
2018-12-03T00:23:59.935Z,95.80
2018-12-03T00:26:28.473Z,96.20
2018-12-03T00:28:57.077Z,96.40
2018-12-03T00:31:25.615Z,96.70
2018-12-03T00:33:54.122Z,96.80
2018-12-03T00:36:22.650Z,96.80
2018-12-03T00:38:51.189Z,96.80
2018-12-03T00:41:19.737Z,96.90
2018-12-03T00:43:48.271Z,97.00
2018-12-03T00:46:17.017Z,96.90
2018-12-03T00:48:45.563Z,96.80
2018-12-03T00:51:14.072Z,97.20
2018-12-03T00:53:42.568Z,96.80
2018-12-03T00:56:11.179Z,97.00
2018-12-03T00:58:39.669Z,97.10
2018-12-03T01:01:08.174Z,97.10
2018-12-03T01:03:36.645Z,97.00
2018-12-03T01:06:06.002Z,97.10
2018-12-03T01:08:34.823Z,97.10
2018-12-03T01:11:03.482Z,97.20
2018-12-03T01:13:32.058Z,97.20
2018-12-03T01:16:00.596Z,97.30
2018-12-03T01:18:29.155Z,97.30
2018-12-03T01:20:57.800Z,97.90
2018-12-03T01:23:26.312Z,98.30
2018-12-03T01:25:54.922Z,98.50
2018-12-03T01:28:23.480Z,98.50
2018-12-03T01:30:51.995Z,98.20
2018-12-03T01:33:20.525Z,98.20
2018-12-03T01:35:49.063Z,98.20
2018-12-03T01:38:17.621Z,98.20
2018-12-03T01:40:46.182Z,98.00
2018-12-03T01:43:14.704Z,97.90
2018-12-03T01:45:43.240Z,97.90
2018-12-03T01:48:11.804Z,97.90
2018-12-03T01:50:40.325Z,97.90
2018-12-03T01:53:08.865Z,98.00
2018-12-03T01:55:37.372Z,97.90
2018-12-03T01:58:05.971Z,98.00
2018-12-03T02:00:34.507Z,98.20
2018-12-03T02:03:03.044Z,98.20
2018-12-03T02:05:31.571Z,98.30
2018-12-03T02:08:00.209Z,98.40
2018-12-03T02:10:28.940Z,98.40
2018-12-03T02:12:57.583Z,98.40
2018-12-03T02:15:26.181Z,98.30
2018-12-03T02:17:54.759Z,98.10
2018-12-03T02:20:23.277Z,97.70
2018-12-03T02:22:51.792Z,97.40
2018-12-03T02:25:20.373Z,97.20
2018-12-03T02:27:48.904Z,97.20
2018-12-03T02:30:18.246Z,96.90
2018-12-03T02:32:46.853Z,96.90
2018-12-03T02:35:15.528Z,96.80
2018-12-03T02:37:44.029Z,96.70
2018-12-03T02:40:13.800Z,96.80
2018-12-03T02:42:42.417Z,96.70
2018-12-03T02:45:12.862Z,96.60
2018-12-03T02:47:41.442Z,96.70
2018-12-03T02:50:12.056Z,96.50
2018-12-03T02:52:40.810Z,96.60
2018-12-03T02:55:10.436Z,96.70
2018-12-03T02:57:39.083Z,96.60
2018-12-03T03:00:12.930Z,96.60
2018-12-03T03:02:41.813Z,96.70
2018-12-03T03:05:11.560Z,96.70
2018-12-03T03:07:40.315Z,96.90
2018-12-03T03:10:10.480Z,96.90
2018-12-03T03:12:38.997Z,97.10
2018-12-03T03:15:10.081Z,97.10
2018-12-03T03:17:38.861Z,97.10
2018-12-03T03:20:09.249Z,97.10
2018-12-03T03:22:37.759Z,97.10
2018-12-03T03:25:07.349Z,96.90
2018-12-03T03:27:35.948Z,96.80
2018-12-03T03:30:06.370Z,97.10
2018-12-03T03:32:35.063Z,97.40
2018-12-03T03:35:03.521Z,97.30
2018-12-03T03:37:32.048Z,97.40
2018-12-03T03:40:00.656Z,97.50
2018-12-03T03:42:29.153Z,97.50
2018-12-03T03:44:57.705Z,97.60
2018-12-03T03:47:26.216Z,97.60
2018-12-03T03:49:54.774Z,97.00
2018-12-03T03:52:23.373Z,96.30
2018-12-03T03:54:51.865Z,96.00
2018-12-03T03:57:20.437Z,95.70
2018-12-03T03:59:49.022Z,95.30
2018-12-03T04:02:17.556Z,95.40
2018-12-03T04:04:46.122Z,95.30
2018-12-03T04:07:14.714Z,95.50
2018-12-03T04:09:43.252Z,95.50
2018-12-03T04:12:11.733Z,95.40
2018-12-03T04:14:40.323Z,95.30
2018-12-03T04:17:08.836Z,95.50
2018-12-03T04:19:37.340Z,95.50
2018-12-03T04:22:05.927Z,95.60
2018-12-03T04:24:34.427Z,95.50
2018-12-03T04:27:02.941Z,95.40
2018-12-03T04:29:31.468Z,95.30
2018-12-03T04:32:00.017Z,95.30
2018-12-03T04:34:28.588Z,95.30
2018-12-03T04:36:57.127Z,95.50
2018-12-03T04:39:25.675Z,95.40
2018-12-03T04:41:54.206Z,95.50
2018-12-03T04:44:22.678Z,95.30
2018-12-03T04:46:51.202Z,95.30
2018-12-03T04:49:19.740Z,95.10
2018-12-03T04:51:48.267Z,95.10
2018-12-03T04:54:16.799Z,95.30
2018-12-03T04:56:45.300Z,95.20
2018-12-03T04:59:13.865Z,94.90
2018-12-03T05:01:42.358Z,94.90
2018-12-03T05:04:10.892Z,94.90
2018-12-03T05:06:39.476Z,95.00
2018-12-03T05:09:12.011Z,95.20
2018-12-03T05:11:40.576Z,95.00
2018-12-03T05:14:09.196Z,95.10
2018-12-03T05:16:37.783Z,95.00
2018-12-03T05:19:06.415Z,95.10
2018-12-03T05:21:35.005Z,95.00
2018-12-03T05:24:04.409Z,95.20
2018-12-03T05:26:32.148Z,95.20
2018-12-03T05:29:00.686Z,95.10
2018-12-03T05:31:29.315Z,95.00
2018-12-03T05:33:57.898Z,95.10
2018-12-03T05:36:26.490Z,95.00
2018-12-03T05:38:55.201Z,94.70
2018-12-03T05:41:23.778Z,94.80
2018-12-03T05:43:52.349Z,94.90
2018-12-03T05:46:20.908Z,94.90
2018-12-03T05:48:49.459Z,94.90
2018-12-03T05:51:18.059Z,94.80
2018-12-03T05:53:46.634Z,94.80
2018-12-03T05:56:15.186Z,94.90
2018-12-03T05:58:43.731Z,94.70
2018-12-03T06:01:12.304Z,94.60
2018-12-03T06:03:40.857Z,94.40
2018-12-03T06:06:09.463Z,94.40
2018-12-03T06:08:38.017Z,94.60
2018-12-03T06:11:06.698Z,94.60
2018-12-03T06:13:35.280Z,94.70
2018-12-03T06:16:03.923Z,94.70
2018-12-03T06:18:32.485Z,94.80
2018-12-03T06:21:01.167Z,94.90
2018-12-03T06:23:29.708Z,94.80
2018-12-03T06:25:58.218Z,94.70
2018-12-03T06:28:26.901Z,94.70
2018-12-03T06:30:56.048Z,94.90
2018-12-03T06:33:24.585Z,95.10
2018-12-03T06:35:53.250Z,95.00
2018-12-03T06:38:21.819Z,95.00
2018-12-03T06:40:50.383Z,95.00
2018-12-03T06:43:19.245Z,94.90
2018-12-03T06:45:48.139Z,94.80
2018-12-03T06:48:21.359Z,94.80
2018-12-03T06:50:50.452Z,94.70
2018-12-03T06:53:19.113Z,94.90
2018-12-03T06:55:47.731Z,94.90
2018-12-03T06:58:16.717Z,94.70
2018-12-03T07:00:47.403Z,94.60
2018-12-03T07:03:16.000Z,94.50
2018-12-03T07:05:46.231Z,94.60
2018-12-03T07:08:14.817Z,94.50
2018-12-03T07:10:43.559Z,94.50
2018-12-03T07:13:16.712Z,94.40
2018-12-03T07:15:46.256Z,94.30
2018-12-03T07:18:14.753Z,94.30
2018-12-03T07:20:43.565Z,94.30
2018-12-03T07:23:12.548Z,94.20
2018-12-03T07:25:41.268Z,94.20
2018-12-03T07:28:09.946Z,94.10
2018-12-03T07:30:38.864Z,94.00
2018-12-03T07:33:07.560Z,94.10
2018-12-03T07:35:36.186Z,94.10
2018-12-03T07:38:05.187Z,94.20
2018-12-03T07:40:33.915Z,94.20
2018-12-03T07:43:02.640Z,94.10
2018-12-03T07:45:31.344Z,94.40
2018-12-03T07:47:59.993Z,94.00
2018-12-03T07:50:28.606Z,94.00
2018-12-03T07:52:57.337Z,93.90
2018-12-03T07:55:26.734Z,93.80
2018-12-03T07:58:01.916Z,93.60
2018-12-03T08:00:34.305Z,93.70
2018-12-03T08:03:02.868Z,93.70
2018-12-03T08:05:31.516Z,93.40
2018-12-03T08:08:00.172Z,93.30
2018-12-03T08:10:28.762Z,93.40
2018-12-03T08:12:57.350Z,93.40
2018-12-03T08:15:26.015Z,93.40
2018-12-03T08:17:59.363Z,93.50
2018-12-03T08:20:31.818Z,93.40
2018-12-03T08:23:02.765Z,93.50
2018-12-03T08:25:31.478Z,93.40
2018-12-03T08:28:00.342Z,93.40
2018-12-03T08:30:29.637Z,93.40
2018-12-03T08:32:58.308Z,93.50
2018-12-03T08:35:27.208Z,93.40
2018-12-03T08:37:55.838Z,93.40
2018-12-03T08:40:24.531Z,93.50
2018-12-03T08:42:54.415Z,93.60
2018-12-03T08:45:24.080Z,93.70
2018-12-03T08:47:53.155Z,93.70
2018-12-03T08:50:24.171Z,93.90
2018-12-03T08:52:53.026Z,93.90
2018-12-03T08:55:21.708Z,94.20
2018-12-03T08:57:50.330Z,94.50
2018-12-03T09:00:24.670Z,94.60
2018-12-03T09:03:01.335Z,94.70
2018-12-03T09:05:36.164Z,94.80
2018-12-03T09:08:05.270Z,94.90
2018-12-03T09:10:33.944Z,95.10
2018-12-03T09:13:11.738Z,95.10
2018-12-03T09:15:40.351Z,94.90
2018-12-03T09:18:08.975Z,94.80
2018-12-03T09:20:39.258Z,94.80
2018-12-03T09:23:07.897Z,94.50
2018-12-03T09:25:36.865Z,94.30
2018-12-03T09:28:05.822Z,94.00
2018-12-03T09:30:34.488Z,93.80
2018-12-03T09:33:03.073Z,93.70
2018-12-03T09:35:31.637Z,93.50
2018-12-03T09:38:00.157Z,93.40
2018-12-03T09:40:30.113Z,93.30
2018-12-03T09:42:58.941Z,93.20
2018-12-03T09:45:27.958Z,92.90
2018-12-03T09:47:56.638Z,92.70
2018-12-03T09:50:26.709Z,92.40
2018-12-03T09:52:55.508Z,92.10
2018-12-03T09:55:26.329Z,92.10
2018-12-03T09:58:03.029Z,91.90
2018-12-03T10:00:31.639Z,91.80
2018-12-03T10:03:02.243Z,92.10
2018-12-03T10:05:40.256Z,91.80
2018-12-03T10:08:09.164Z,91.80
2018-12-03T10:10:37.754Z,91.80
2018-12-03T10:13:08.092Z,91.90
2018-12-03T10:15:36.750Z,91.60
2018-12-03T10:18:05.662Z,91.60
2018-12-03T10:20:34.555Z,91.70
2018-12-03T10:23:03.171Z,91.70
2018-12-03T10:25:31.834Z,91.90
2018-12-03T10:28:03.184Z,91.70
2018-12-03T10:30:31.759Z,91.60
2018-12-03T10:33:00.348Z,91.60
2018-12-03T10:35:33.237Z,91.90
2018-12-03T10:38:14.198Z,91.70
2018-12-03T10:40:45.062Z,91.80
2018-12-03T10:43:13.733Z,91.70
2018-12-03T10:45:42.633Z,92.00
2018-12-03T10:48:12.850Z,92.00
2018-12-03T10:50:41.424Z,92.20
2018-12-03T10:53:09.990Z,92.30
2018-12-03T10:55:42.702Z,92.30
2018-12-03T10:58:14.971Z,92.20
2018-12-03T11:00:48.877Z,92.20
2018-12-03T11:03:22.693Z,91.60
2018-12-03T11:05:56.819Z,91.90
2018-12-03T11:08:25.573Z,92.10
2018-12-03T11:10:55.446Z,92.30
2018-12-03T11:13:24.485Z,92.50
2018-12-03T11:15:53.010Z,92.70
2018-12-03T11:18:22.028Z,93.70
2018-12-03T11:20:50.612Z,94.70
2018-12-03T11:23:23.527Z,95.50
2018-12-03T11:25:52.653Z,96.00
2018-12-03T11:28:21.215Z,96.20
2018-12-03T11:30:54.370Z,96.50
2018-12-03T11:33:24.405Z,96.80
2018-12-03T11:35:54.696Z,96.40
2018-12-03T11:38:50.057Z,95.90
2018-12-03T11:41:18.780Z,94.40
2018-12-03T11:43:47.325Z,94.00
2018-12-03T11:46:15.994Z,94.30
2018-12-03T11:48:44.662Z,94.50
2018-12-03T11:51:13.589Z,95.00
2018-12-03T11:53:42.167Z,94.90
2018-12-03T11:56:10.644Z,95.50
2018-12-03T11:58:39.251Z,95.20
2018-12-03T12:01:08.068Z,95.30
2018-12-03T12:03:42.745Z,95.30
2018-12-03T12:06:10.146Z,95.30
2018-12-03T12:08:38.817Z,95.00
2018-12-03T12:11:07.587Z,94.70
2018-12-03T12:13:36.215Z,94.30
2018-12-03T12:16:05.324Z,94.00
2018-12-03T12:18:33.913Z,94.10
2018-12-03T12:21:02.590Z,94.30
2018-12-03T12:23:31.329Z,94.40
2018-12-03T12:26:00.390Z,94.60
2018-12-03T12:28:29.008Z,94.60
2018-12-03T12:30:57.913Z,94.30
2018-12-03T12:33:26.603Z,94.00
2018-12-03T12:35:55.315Z,92.90
2018-12-03T12:38:24.135Z,91.50
2018-12-03T12:40:52.726Z,91.70
2018-12-03T12:43:21.471Z,91.90
2018-12-03T12:45:53.416Z,92.30
2018-12-03T12:48:22.136Z,92.60
2018-12-03T12:50:51.026Z,93.00
2018-12-03T12:53:19.965Z,93.10
2018-12-03T12:55:48.758Z,93.30
2018-12-03T12:58:17.397Z,93.30
2018-12-03T13:00:45.987Z,93.50
2018-12-03T13:03:14.890Z,92.60
2018-12-03T13:05:43.775Z,92.90
2018-12-03T13:08:12.664Z,92.60
2018-12-03T13:10:41.541Z,92.70
2018-12-03T13:13:10.121Z,92.60
2018-12-03T13:15:38.962Z,92.30
2018-12-03T13:18:47.648Z,92.40
2018-12-03T13:21:16.788Z,92.20
2018-12-03T13:23:46.221Z,92.70
2018-12-03T13:26:15.009Z,92.10
2018-12-03T13:28:43.594Z,92.10
2018-12-03T13:31:12.390Z,92.10
2018-12-03T13:33:47.634Z,92.10
2018-12-03T13:36:16.493Z,92.00
2018-12-03T13:38:45.338Z,91.90
2018-12-03T13:41:14.062Z,91.90
2018-12-03T13:43:42.998Z,91.90
2018-12-03T13:46:11.710Z,92.00
2018-12-03T13:48:40.602Z,92.00
2018-12-03T13:51:09.352Z,92.00
2018-12-03T13:53:38.016Z,91.60
2018-12-03T13:56:06.983Z,91.50
2018-12-03T13:58:35.952Z,91.40
2018-12-03T14:01:05.222Z,91.60
2018-12-03T14:03:35.680Z,91.40
2018-12-03T14:06:16.492Z,91.70
2018-12-03T14:09:01.238Z,91.80
2018-12-03T14:12:45.147Z,91.70
2018-12-03T14:15:29.657Z,91.70
2018-12-03T14:18:07.636Z,91.80
2018-12-03T14:20:40.126Z,92.00
2018-12-03T14:23:11.801Z,92.20
2018-12-03T14:25:40.686Z,92.00
2018-12-03T14:28:09.485Z,92.10
2018-12-03T14:30:38.124Z,91.90
2018-12-03T14:33:06.863Z,92.00
2018-12-03T14:35:36.352Z,91.90
2018-12-03T14:38:05.276Z,92.00
2018-12-03T14:40:33.851Z,92.10
2018-12-03T14:43:02.665Z,92.30
2018-12-03T14:45:31.277Z,92.10
2018-12-03T14:48:00.601Z,91.90
2018-12-03T14:50:29.227Z,91.90
2018-12-03T14:52:57.823Z,91.90
2018-12-03T14:55:26.997Z,91.90
2018-12-03T14:57:56.015Z,91.70
2018-12-03T15:00:24.578Z,91.50
2018-12-03T15:02:53.333Z,91.60
2018-12-03T15:05:22.985Z,92.00
2018-12-03T15:07:52.211Z,91.60
2018-12-03T15:10:21.067Z,91.60
2018-12-03T15:12:50.041Z,91.30
2018-12-03T15:15:19.468Z,91.30
2018-12-03T15:17:49.101Z,90.90
2018-12-03T15:20:17.770Z,90.90
2018-12-03T15:22:46.565Z,90.80
2018-12-03T15:25:16.252Z,90.80
2018-12-03T15:27:45.037Z,90.90
2018-12-03T15:30:13.749Z,91.00
2018-12-03T15:32:42.397Z,90.80
2018-12-03T15:35:11.775Z,90.70
2018-12-03T15:37:40.397Z,90.90
2018-12-03T15:40:13.631Z,90.70
2018-12-03T15:42:42.484Z,90.90
2018-12-03T15:45:13.547Z,90.90
2018-12-03T15:47:42.451Z,90.80
2018-12-03T15:50:11.365Z,90.90
2018-12-03T15:52:40.287Z,91.00
2018-12-03T15:55:09.339Z,90.90
2018-12-03T15:57:38.078Z,91.20
2018-12-03T16:00:10.104Z,91.20
2018-12-03T16:02:38.828Z,91.20
2018-12-03T16:05:11.516Z,91.30
2018-12-03T16:07:40.323Z,91.10
2018-12-03T16:10:11.987Z,91.20
2018-12-03T16:12:40.646Z,91.10
2018-12-03T16:15:10.046Z,91.30
2018-12-03T16:17:39.924Z,91.20
2018-12-03T16:20:10.405Z,91.30
2018-12-03T16:22:40.673Z,91.20
2018-12-03T16:25:09.819Z,91.30
2018-12-03T16:27:38.918Z,91.40
2018-12-03T16:30:12.543Z,91.40
2018-12-03T16:32:41.127Z,91.30
2018-12-03T16:35:10.847Z,91.10
2018-12-03T16:37:39.782Z,91.20
2018-12-03T16:40:09.389Z,90.80
2018-12-03T16:42:38.116Z,90.70
2018-12-03T16:45:07.827Z,90.90
2018-12-03T16:47:37.747Z,90.90
2018-12-03T16:50:09.624Z,91.00
2018-12-03T16:52:38.847Z,91.20
2018-12-03T16:55:07.767Z,91.40
2018-12-03T16:57:36.437Z,91.40
2018-12-03T17:00:09.580Z,91.50
2018-12-03T17:02:38.465Z,91.60
2018-12-03T17:05:07.405Z,91.50
2018-12-03T17:07:36.339Z,91.40
2018-12-03T17:10:08.079Z,91.60
2018-12-03T17:12:36.823Z,91.20
2018-12-03T17:15:06.264Z,91.20
2018-12-03T17:17:35.513Z,91.10
2018-12-03T17:20:07.547Z,91.20
2018-12-03T17:22:44.904Z,91.20
2018-12-03T17:25:19.660Z,91.20
2018-12-03T17:27:48.433Z,91.20
2018-12-03T17:30:17.581Z,91.30
2018-12-03T17:32:46.272Z,91.20
2018-12-03T17:35:15.502Z,91.20
2018-12-03T17:37:44.273Z,91.20
2018-12-03T17:40:15.906Z,91.20
2018-12-03T17:42:45.312Z,91.00
2018-12-03T17:45:14.752Z,91.10
2018-12-03T17:47:43.537Z,91.10
2018-12-03T17:50:12.515Z,91.00
2018-12-03T17:52:41.024Z,90.90
2018-12-03T17:55:10.124Z,91.10
2018-12-03T17:57:39.982Z,91.10
2018-12-03T18:00:13.348Z,90.90
2018-12-03T18:02:43.154Z,91.00
2018-12-03T18:05:12.246Z,90.90
2018-12-03T18:07:41.209Z,91.00
2018-12-03T18:10:11.722Z,91.00
2018-12-03T18:12:40.516Z,91.00
2018-12-03T18:15:10.104Z,91.10
2018-12-03T18:17:39.012Z,91.40
2018-12-03T18:20:09.423Z,91.30
2018-12-03T18:22:38.099Z,91.40
2018-12-03T18:25:07.873Z,91.60
2018-12-03T18:27:36.588Z,91.60
2018-12-03T18:30:07.400Z,91.70
2018-12-03T18:32:36.559Z,91.80
2018-12-03T18:35:05.613Z,91.70
2018-12-03T18:37:34.940Z,91.70
2018-12-03T18:40:04.456Z,91.80
2018-12-03T18:42:33.029Z,91.90
2018-12-03T18:45:01.607Z,91.90
2018-12-03T18:47:30.786Z,92.00
2018-12-03T18:50:01.739Z,92.00
2018-12-03T18:52:30.344Z,92.00
2018-12-03T18:54:59.003Z,92.50
2018-12-03T18:57:27.609Z,92.60
2018-12-03T18:59:56.721Z,91.90
2018-12-03T19:02:25.324Z,92.50
2018-12-03T19:04:54.079Z,92.50
2018-12-03T19:07:23.088Z,92.70
2018-12-03T19:09:51.691Z,92.70
2018-12-03T19:12:20.321Z,92.50
2018-12-03T19:14:48.899Z,92.20
2018-12-03T19:17:21.307Z,91.70
2018-12-03T19:19:49.883Z,91.10
2018-12-03T19:22:18.572Z,91.00
2018-12-03T19:24:48.159Z,91.00
2018-12-03T19:27:16.934Z,91.30
2018-12-03T19:29:45.520Z,91.50
2018-12-03T19:32:14.361Z,91.40
2018-12-03T19:34:43.151Z,91.70
2018-12-03T19:37:11.788Z,91.90
2018-12-03T19:39:40.424Z,91.90
2018-12-03T19:42:09.738Z,91.80
2018-12-03T19:44:38.506Z,91.70
2018-12-03T19:47:07.274Z,91.60
2018-12-03T19:49:36.074Z,91.70
2018-12-03T19:52:05.085Z,91.70
2018-12-03T19:54:34.244Z,91.70
2018-12-03T19:57:03.779Z,91.80
2018-12-03T19:59:35.897Z,92.00
2018-12-03T20:02:04.674Z,91.70
2018-12-03T20:04:38.776Z,91.60
2018-12-03T20:07:07.386Z,90.60
2018-12-03T20:09:36.276Z,90.50
2018-12-03T20:12:04.999Z,90.00
2018-12-03T20:14:33.731Z,90.00
2018-12-03T20:17:02.780Z,90.10
2018-12-03T20:19:31.539Z,89.80
2018-12-03T20:22:00.386Z,90.10
2018-12-03T20:24:29.128Z,90.30
2018-12-03T20:27:07.702Z,90.40
2018-12-03T20:29:45.061Z,90.50
2018-12-03T20:33:18.724Z,90.50
2018-12-03T20:38:06.882Z,90.60
2018-12-03T20:40:46.775Z,90.60
2018-12-03T20:43:19.617Z,90.60
2018-12-03T20:45:59.066Z,90.70
2018-12-03T20:49:37.000Z,90.60
2018-12-03T20:52:12.953Z,90.50
2018-12-03T20:54:41.635Z,90.40
2018-12-03T20:57:10.407Z,90.00
2018-12-03T20:59:38.970Z,88.30
2018-12-03T21:02:10.321Z,88.20
2018-12-03T21:04:38.857Z,88.20
2018-12-03T21:07:07.442Z,87.50
2018-12-03T21:09:35.973Z,86.70
2018-12-03T21:12:04.622Z,85.80
2018-12-03T21:14:33.819Z,85.00
2018-12-03T21:17:03.166Z,85.10
2018-12-03T21:19:31.786Z,85.20
2018-12-03T21:22:00.421Z,84.50
2018-12-03T21:24:29.135Z,84.50
2018-12-03T21:26:57.654Z,84.70
2018-12-03T21:29:26.357Z,84.50
2018-12-03T21:31:55.037Z,84.70
2018-12-03T21:34:24.470Z,85.00
2018-12-03T21:36:53.833Z,85.40
2018-12-03T21:39:22.426Z,86.00
2018-12-03T21:41:52.234Z,86.10
2018-12-03T21:44:21.682Z,86.40
2018-12-03T21:46:50.254Z,86.60
2018-12-03T21:49:19.710Z,86.60
2018-12-03T21:51:48.927Z,86.70
2018-12-03T21:54:17.850Z,87.10
2018-12-03T21:56:46.411Z,88.50
2018-12-03T21:59:15.571Z,88.20
2018-12-03T22:01:44.162Z,88.20
2018-12-03T22:04:12.755Z,88.50
2018-12-03T22:06:41.347Z,88.50
2018-12-03T22:09:09.873Z,88.30
2018-12-03T22:11:38.746Z,88.70
2018-12-03T22:14:07.307Z,88.70
2018-12-03T22:16:36.615Z,88.70
2018-12-03T22:19:05.189Z,88.50
2018-12-03T22:21:34.027Z,88.50
2018-12-03T22:24:03.119Z,88.50
2018-12-03T22:26:31.822Z,88.30
2018-12-03T22:29:00.739Z,88.40
2018-12-03T22:31:29.346Z,88.50
2018-12-03T22:33:58.139Z,88.00
2018-12-03T22:36:26.676Z,88.10
2018-12-03T22:38:55.175Z,88.00
2018-12-03T22:41:23.782Z,88.20
2018-12-03T22:43:52.988Z,88.50
2018-12-03T22:46:21.551Z,88.20
2018-12-03T22:48:50.725Z,88.50
2018-12-03T22:51:19.365Z,88.50
2018-12-03T22:53:48.802Z,89.30
2018-12-03T22:56:17.392Z,89.40
2018-12-03T22:58:46.794Z,89.80
2018-12-03T23:01:19.602Z,90.20
2018-12-03T23:03:48.280Z,90.20
2018-12-03T23:06:17.225Z,90.30
2018-12-03T23:08:46.202Z,90.30
2018-12-03T23:11:14.777Z,90.30
2018-12-03T23:13:43.427Z,90.40
2018-12-03T23:16:12.213Z,90.50
2018-12-03T23:18:40.830Z,90.50
2018-12-03T23:21:09.986Z,90.60
2018-12-03T23:23:38.651Z,90.80
2018-12-03T23:26:09.403Z,90.80
2018-12-03T23:28:37.953Z,90.80
2018-12-03T23:31:06.531Z,90.80
2018-12-03T23:33:35.135Z,90.80
2018-12-03T23:36:03.783Z,90.80
2018-12-03T23:38:32.858Z,90.90
2018-12-03T23:41:01.389Z,90.70
2018-12-03T23:43:29.929Z,90.60
2018-12-03T23:48:38.006Z,90.60
2018-12-03T23:51:07.049Z,90.40
2018-12-03T23:53:35.578Z,90.10
2018-12-03T23:56:04.365Z,90.00
2018-12-03T23:58:32.934Z,90.00
